Flight Track Log - Related Links

Times and Time Zones

All times are in EDT time to prevent confusion due to time zone crossing. See the EJA982 flight status page for this flight to view local times or setup timezone preferences in your user account.

Time Position Orientation Groundspeed Altitude Reporting Facility
EDT Latitude Longitude Course Direction KTS MPH feet Rate Location/Type
Sat 11:20:00 AM 33.1943 -65.4317 323° Northwest  Level Estimated
Sat 11:21:00 AM 33.2961 -65.5253 322° Northwest  Level Estimated
Sat 11:22:00 AM 33.3978 -65.6191 322° Northwest  Level Estimated
Sat 11:23:00 AM 33.4994 -65.7131 322° Northwest  Level Estimated
Sat 11:24:00 AM 33.6010 -65.8073 322° Northwest  Level Estimated
Sat 11:24:44 AM 32.5667 -65.0000 307° West 507 583 13,000  Level New York Oceanic (ODAPS)
Sat 11:25:00 AM 33.7025 -65.9018 322° Northwest  Level Estimated
Sat 11:26:00 AM 33.8039 -65.9964 322° Northwest  Level Estimated
Sat 11:27:00 AM 33.9053 -66.0913 322° Northwest  Level Estimated
Sat 11:27:23 AM 32.5667 -65.0000 307° West 507 583 16,500  Level New York Oceanic (ODAPS)
Sat 11:28:00 AM 34.0065 -66.1864 322° Northwest  Level Estimated
Sat 11:29:00 AM 34.1077 -66.2818 322° Northwest  Level Estimated
Sat 11:30:00 AM 34.2090 -66.3775 322° Northwest  Level Estimated
Sat 11:30:22 AM 32.5667 -65.0000 307° West 507 583 22,000  Level New York Oceanic (ODAPS)
Sat 11:31:00 AM 33.1501 -65.9410 306° West 507 583 13,000 -5,510 Descending FlightAware Transoceanic
Sat 11:32:00 AM 33.2328 -66.0764 306° West 507 583 13,000 1,750 Level FlightAware Transoceanic
Sat 11:33:00 AM 33.3567 -66.2800 306° West 507 583 16,500 1,750 Climbing FlightAware Transoceanic
Sat 11:34:00 AM 33.4436 -66.4237 306° West 507 583 16,500  Level FlightAware Transoceanic
Sat 11:35:00 AM 33.5304 -66.5676 306° West 507 583 16,500 2,750 Level FlightAware Transoceanic
Sat 11:36:00 AM 33.6171 -66.7119 306° West 507 583 22,000 10,125 Climbing FlightAware Transoceanic
Sat 11:36:20 AM 32.5667 -65.0000 307° West 507 583 30,000 13,333 Climbing New York Oceanic (ODAPS)
Sat 11:36:36 AM 32.5667 -65.0000 307° West 479 551 30,000 -12,000 Level New York Oceanic (ODAPS)
Sat 11:37:00 AM 33.7035 -66.8564 306° West 507 583 22,000 -5,714 Descending FlightAware Transoceanic
Sat 11:38:00 AM 33.7898 -67.0012 306° West 507 583 22,000  Level FlightAware Transoceanic
Sat 11:39:00 AM 33.8760 -67.1463 306° West 507 583 22,000  Level FlightAware Transoceanic
Sat 11:40:00 AM 33.9619 -67.2917 305° West 507 583 22,000  Level FlightAware Transoceanic
Sat 11:41:00 AM 34.0477 -67.4373 305° West 507 583 22,000 4,000 Level FlightAware Transoceanic
Sat 11:42:00 AM 34.1333 -67.5833 323° Northwest 507 583 30,000 4,000 Climbing FlightAware Transoceanic
Sat 11:43:00 AM 34.0563 -67.4519 305° West 479 551 30,000  Level FlightAware Transoceanic
Sat 11:44:00 AM 34.1333 -67.5833 323° Northwest 479 551 30,000  Level FlightAware Transoceanic
Sat 11:45:00 AM 34.2584 -67.6956 323° Northwest 479 551 30,000  Level FlightAware Transoceanic
Sat 11:46:00 AM 34.3834 -67.8082 323° Northwest 479 551 30,000  Level FlightAware Transoceanic
Sat 11:47:00 AM 34.5083 -67.9211 323° Northwest 479 551 30,000  Level FlightAware Transoceanic
Sat 11:48:00 AM 34.6331 -68.0344 323° Northwest 479 551 30,000  Level FlightAware Transoceanic
Sat 11:49:00 AM 34.7578 -68.1480 323° Northwest 479 551 30,000  Level FlightAware Transoceanic
Sat 11:50:00 AM 34.8824 -68.2620 323° Northwest 479 551 30,000  Level FlightAware Transoceanic
Sat 11:51:00 AM 35.0069 -68.3763 323° Northwest 479 551 30,000  Level FlightAware Transoceanic
Sat 11:52:00 AM 35.1312 -68.4909 323° Northwest 479 551 30,000  Level FlightAware Transoceanic
Sat 11:52:42 AM 34.1333 -67.5833 323° Northwest 537 618 30,000  Level New York Oceanic (ODAPS)
Sat 11:53:00 AM 35.2555 -68.6059 323° Northwest 479 551 30,000  Level FlightAware Transoceanic
Sat 11:54:00 AM 35.3797 -68.7213 323° Northwest 479 551 30,000  Level FlightAware Transoceanic
Sat 11:55:00 AM 35.5037 -68.8370 323° Northwest 479 551 30,000  Level FlightAware Transoceanic
Sat 11:56:00 AM 35.6276 -68.9530 323° Northwest 479 551 30,000  Level FlightAware Transoceanic
Sat 11:57:00 AM 35.7515 -69.0695 323° Northwest 479 551 30,000  Level FlightAware Transoceanic
Sat 11:58:00 AM 35.8175 -69.1317 323° Northwest 537 618 30,000  Level FlightAware Transoceanic
Sat 11:59:00 AM 35.9370 -69.2448 322° Northwest 537 618 30,000  Level FlightAware Transoceanic
Sat 12:00:00 PM 36.0564 -69.3582 322° Northwest 537 618 30,000  Level FlightAware Transoceanic
Sat 12:01:00 PM 36.1757 -69.4720 322° Northwest 537 618 30,000  Level FlightAware Transoceanic
Sat 12:02:00 PM 36.2949 -69.5861 322° Northwest 537 618 30,000  Level FlightAware Transoceanic
Sat 12:03:00 PM 36.4140 -69.7005 322° Northwest 537 618 30,000  Level FlightAware Transoceanic
Sat 12:04:00 PM 36.5330 -69.8154 322° Northwest 537 618 30,000  Level FlightAware Transoceanic
Sat 12:04:10 PM 36.1667 -69.4500 322° Northwest 592 681 30,000  Level New York Oceanic (ODAPS)
Sat 12:05:00 PM 36.6519 -69.9305 322° Northwest 537 618 30,000  Level FlightAware Transoceanic
Sat 12:06:00 PM 36.7706 -70.0461 322° Northwest 537 618 30,000  Level FlightAware Transoceanic
Sat 12:07:00 PM 36.8893 -70.1619 322° Northwest 537 618 30,000  Level FlightAware Transoceanic
Sat 12:08:00 PM 37.0078 -70.2782 322° Northwest 537 618 30,000  Level FlightAware Transoceanic
Sat 12:09:00 PM 37.1263 -70.3948 322° Northwest 537 618 30,000  Level FlightAware Transoceanic
Sat 12:10:00 PM 37.4597 -70.7234 321° Northwest 592 681 30,000  Level FlightAware Transoceanic
Sat 12:11:00 PM 37.5883 -70.8531 321° Northwest 592 681 30,000  Level FlightAware Transoceanic
Sat 12:12:00 PM 37.7167 -70.9833 330° Northwest 592 681 30,000  Level FlightAware Transoceanic
Sat 12:13:00 PM 37.8459 -71.0786 330° Northwest 592 681 30,000  Level FlightAware Transoceanic
Sat 12:14:30 PM 37.8353 -71.0772 330° Northwest 542 624 30,000  Level New York Center
Sat 12:15:29 PM 37.9725 -71.1411 340° North 540 621 30,000  Level New York Center
Sat 12:16:29 PM 38.1142 -71.2186 337° Northwest 540 621 30,000  Level New York Center
Sat 12:17:30 PM 38.2536 -71.2831 340° North 540 621 30,000  Level New York Center
Sat 12:18:30 PM 38.3908 -71.3556 338° Northwest 535 616 30,000  Level New York Center
Sat 12:19:29 PM 38.5322 -71.4231 340° North 535 616 30,000  Level New York Center
Sat 12:20:29 PM 38.6736 -71.4911 339° North 535 616 30,000  Level New York Center
Sat 12:21:30 PM 38.8131 -71.5592 339° North 535 616 30,000  Level New York Center
Sat 12:22:31 PM 38.9522 -71.6328 338° Northwest 535 616 30,000  Level New York Center
Sat 12:23:29 PM 39.0953 -71.7014 340° North 535 616 30,000  Level New York Center
Sat 12:24:30 PM 39.2344 -71.7731 338° Northwest 535 616 30,000  Level New York Center
Sat 12:25:31 PM 39.3756 -71.8450 338° Northwest 535 616 30,000 -101 Level New York Center
Sat 12:26:29 PM 39.5144 -71.9172 338° Northwest 535 616 29,800 -1,714 Descending New York Center
Sat 12:27:30 PM 39.6494 -71.9842 339° North 529 609 26,600 -3,074 Descending New York Center
Sat 12:28:30 PM 39.7800 -72.0511 338° Northwest 517 595 23,600 -2,715 Descending New York Center
Sat 12:31:53 PM 40.1433 -72.2392 338° Northwest 567 652 14,700 -2,418 Descending Boston Center
Sat 12:32:53 PM 40.2581 -72.2958 339° North 493 567 13,000 -1,000 Descending Boston Center
Sat 12:33:53 PM 40.3622 -72.3503 338° Northwest 445 512 12,700 -640 Descending Boston Center
Sat 12:35:51 PM 40.5667 -72.4500 340° North 393 452 11,100 -522 Descending New York TRACON
Sat 12:36:57 PM 40.6667 -72.5167 333° Northwest 387 445 11,100 -429 Level New York TRACON
Sat 12:37:57 PM 40.7667 -72.5667 339° North 377 434 10,200 -789 Descending New York TRACON
Sat 12:38:51 PM 40.8333 -72.6000 339° North 265 305 9,600 -1,263 Descending New York TRACON
Sat 12:39:51 PM 40.9000 -72.6333 339° North 263 303 7,800 -1,190 Descending New York TRACON
Sat 12:40:57 PM 40.9833 -72.6667 343° North 265 305 7,100 -381 Descending New York TRACON
Sat 12:41:57 PM 41.0333 -72.7333 315° West 275 316 7,000 -50 Descending New York TRACON
Sat 12:42:57 PM 41.0667 -72.8167 298° West 265 305 7,000 48 Level New York TRACON
Sat 12:44:03 PM 41.1000 -72.9333 291° West 271 312 7,100 48 Climbing New York TRACON
Sat 12:45:03 PM 41.1333 -73.0167 298° West 271 312 7,100 -650 Level New York TRACON
Sat 12:46:03 PM 41.1500 -73.1000 285° West 260 299 5,800 -1,250 Descending New York TRACON
Sat 12:47:03 PM 41.1667 -73.2000 283° West 255 293 4,600 -900 Descending New York TRACON
Sat 12:48:03 PM 41.1667 -73.2833 270° West 261 300 4,000 -550 Descending New York TRACON
Sat 12:49:03 PM 41.1000 -73.3667 223° Southwest 268 308 3,500 -500 Descending New York TRACON
Sat 12:50:03 PM 41.0667 -73.4333 236° Southwest 253 291 3,000 -238 Descending New York TRACON
Sat 12:51:09 PM 41.0167 -73.5000 225° Southwest 214 246 3,000 -476 Level New York TRACON
Sat 12:52:09 PM 40.9833 -73.5500 229° Southwest 191 220 2,000 -526 Descending New York TRACON
Sat 12:53:03 PM 40.9500 -73.6000 229° Southwest 184 212 2,000  Level New York TRACON

Login

Don't have an account? Register now (free) for customized features, flight alerts, and more!